Garden Valley, Texas
Current Conditions -  °F | °C
As of 12:53 PM on Thursday 27 Nov 2014 (Local Time) from KTYR Reporting Station
Clear Clear  
Wind Chill: 59°   Ceiling: Unl
Heat Index: 59°   Visibility: 10mi
Dew Point: 20°   Wind: 9mph
Humidity: 22%   Direction: 50°NE
Pressure: 30.46"   Gusts: NA
Location:  32.5326°N, 95.4249°W
Report Text: KTYR 271853Z 05008KT 10SM CLR 15/M07 A3046 RMK AO2 SLP312 T01501067
Loading
Personal Weather Stations






























Interactive Weather Map New forecast layout! Learn more

10-Day Weather Forecast

Advertisements
Track Severe Weather on mobile